sensor_id;sensor_type;location;lat;lon;timestamp;pressure;altitude;pressure_sealevel;temperature;humidity
18784;BME280;9520;50.954;6.968;2022-08-25T00:00:05;101072.66;;;32.42;26.69
18784;BME280;9520;50.954;6.968;2022-08-25T00:00:27;101080.84;;;32.42;26.69
18784;BME280;9520;50.954;6.968;2022-08-25T00:00:49;101079.69;;;32.44;26.46
18784;BME280;9520;50.954;6.968;2022-08-25T00:01:13;101079.69;;;32.44;26.10
18784;BME280;9520;50.954;6.968;2022-08-25T00:01:37;101084.28;;;32.44;26.09
18784;BME280;9520;50.954;6.968;2022-08-25T00:02:02;101074.94;;;32.46;25.82
18784;BME280;9520;50.954;6.968;2022-08-25T00:02:26;101067.03;;;32.43;25.82
18784;BME280;9520;50.954;6.968;2022-08-25T00:02:48;101073.22;;;32.45;26.40
18784;BME280;9520;50.954;6.968;2022-08-25T00:03:17;101086.00;;;32.45;26.70
18784;BME280;9520;50.954;6.968;2022-08-25T00:03:39;101078.81;;;32.44;25.99
18784;BME280;9520;50.954;6.968;2022-08-25T00:04:07;101077.09;;;32.43;26.47
18784;BME280;9520;50.954;6.968;2022-08-25T00:04:29;101082.56;;;32.43;27.09
18784;BME280;9520;50.954;6.968;2022-08-25T00:04:51;101077.97;;;32.43;26.77
18784;BME280;9520;50.954;6.968;2022-08-25T00:05:14;101071.81;;;32.41;26.57
18784;BME280;9520;50.954;6.968;2022-08-25T00:05:38;101071.97;;;32.40;26.98
18784;BME280;9520;50.954;6.968;2022-08-25T00:06:03;101081.03;;;32.40;26.55
18784;BME280;9520;50.954;6.968;2022-08-25T00:06:25;101067.09;;;32.34;26.47
18784;BME280;9520;50.954;6.968;2022-08-25T00:06:47;101074.91;;;32.29;26.22
18784;BME280;9520;50.954;6.968;2022-08-25T00:07:10;101077.50;;;32.30;26.50
18784;BME280;9520;50.954;6.968;2022-08-25T00:07:39;101073.75;;;32.31;26.05
18784;BME280;9520;50.954;6.968;2022-08-25T00:08:01;101073.75;;;32.31;25.91
18784;BME280;9520;50.954;6.968;2022-08-25T00:08:24;101079.22;;;32.31;25.90
18784;BME280;9520;50.954;6.968;2022-08-25T00:08:46;101075.44;;;32.32;25.82
18784;BME280;9520;50.954;6.968;2022-08-25T00:09:11;101072.91;;;32.31;26.22
18784;BME280;9520;50.954;6.968;2022-08-25T00:09:34;101076.16;;;32.34;26.31
18784;BME280;9520;50.954;6.968;2022-08-25T00:09:56;101081.63;;;32.34;27.05
18784;BME280;9520;50.954;6.968;2022-08-25T00:10:19;101076.63;;;32.30;26.76
18784;BME280;9520;50.954;6.968;2022-08-25T00:10:40;101078.81;;;32.26;26.83
18784;BME280;9520;50.954;6.968;2022-08-25T00:11:03;101071.16;;;32.30;26.51
18784;BME280;9520;50.954;6.968;2022-08-25T00:11:29;101077.50;;;32.30;26.75
18784;BME280;9520;50.954;6.968;2022-08-25T00:11:53;101079.22;;;32.31;27.06
18784;BME280;9520;50.954;6.968;2022-08-25T00:12:15;101079.22;;;32.31;27.04
18784;BME280;9520;50.954;6.968;2022-08-25T00:12:37;101080.22;;;32.30;27.51
18784;BME280;9520;50.954;6.968;2022-08-25T00:13:00;101073.75;;;32.31;27.35
18784;BME280;9520;50.954;6.968;2022-08-25T00:13:22;101080.22;;;32.30;27.21
18784;BME280;9520;50.954;6.968;2022-08-25T00:13:48;101078.19;;;32.32;26.98
18784;BME280;9520;50.954;6.968;2022-08-25T00:14:14;101078.19;;;32.32;27.23
18784;BME280;9520;50.954;6.968;2022-08-25T00:14:37;101078.03;;;32.34;27.25
18784;BME280;9520;50.954;6.968;2022-08-25T00:15:01;101078.03;;;32.34;27.31
18784;BME280;9520;50.954;6.968;2022-08-25T00:15:23;101078.81;;;32.26;26.51
18784;BME280;9520;50.954;6.968;2022-08-25T00:15:45;101074.91;;;32.29;27.27
18784;BME280;9520;50.954;6.968;2022-08-25T00:16:07;101078.66;;;32.28;27.54
18784;BME280;9520;50.954;6.968;2022-08-25T00:16:30;101077.78;;;32.27;26.52
18784;BME280;9520;50.954;6.968;2022-08-25T00:16:53;101082.41;;;32.27;26.66
18784;BME280;9520;50.954;6.968;2022-08-25T00:17:16;101077.78;;;32.27;26.48
18784;BME280;9520;50.954;6.968;2022-08-25T00:17:38;101082.94;;;32.30;26.33
18784;BME280;9520;50.954;6.968;2022-08-25T00:18:01;101076.09;;;32.26;26.60
18784;BME280;9520;50.954;6.968;2022-08-25T00:18:23;101078.50;;;32.29;26.69
18784;BME280;9520;50.954;6.968;2022-08-25T00:18:48;101081.78;;;32.33;27.13
18784;BME280;9520;50.954;6.968;2022-08-25T00:19:12;101073.75;;;32.31;27.18
18784;BME280;9520;50.954;6.968;2022-08-25T00:19:36;101079.22;;;32.31;27.39
18784;BME280;9520;50.954;6.968;2022-08-25T00:19:58;101080.91;;;32.32;27.58
18784;BME280;9520;50.954;6.968;2022-08-25T00:20:20;101075.78;;;32.29;28.04
18784;BME280;9520;50.954;6.968;2022-08-25T00:20:42;101077.50;;;32.30;27.49
18784;BME280;9520;50.954;6.968;2022-08-25T00:21:09;101076.50;;;32.31;26.73
18784;BME280;9520;50.954;6.968;2022-08-25T00:21:31;101079.22;;;32.31;26.86
18784;BME280;9520;50.954;6.968;2022-08-25T00:21:54;101078.34;;;32.31;26.51
18784;BME280;9520;50.954;6.968;2022-08-25T00:22:17;101081.94;;;32.31;26.82
18784;BME280;9520;50.954;6.968;2022-08-25T00:22:39;101082.78;;;32.32;26.91
18784;BME280;9520;50.954;6.968;2022-08-25T00:23:01;101079.50;;;32.28;27.02
18784;BME280;9520;50.954;6.968;2022-08-25T00:23:25;101078.66;;;32.28;27.21
18784;BME280;9520;50.954;6.968;2022-08-25T00:23:47;101086.69;;;32.29;26.64
18784;BME280;9520;50.954;6.968;2022-08-25T00:24:14;101083.09;;;32.29;27.24
18784;BME280;9520;50.954;6.968;2022-08-25T00:24:40;101076.94;;;32.27;27.41
18784;BME280;9520;50.954;6.968;2022-08-25T00:25:03;101079.69;;;32.27;27.21
18784;BME280;9520;50.954;6.968;2022-08-25T00:25:25;101074.38;;;32.25;27.30
18784;BME280;9520;50.954;6.968;2022-08-25T00:25:47;101086.16;;;32.26;27.49
18784;BME280;9520;50.954;6.968;2022-08-25T00:26:10;101076.22;;;32.25;26.90
18784;BME280;9520;50.954;6.968;2022-08-25T00:26:33;101075.03;;;32.27;27.07
18784;BME280;9520;50.954;6.968;2022-08-25T00:26:56;101072.63;;;32.24;27.40
18784;BME280;9520;50.954;6.968;2022-08-25T00:27:18;101075.38;;;32.24;27.25
18784;BME280;9520;50.954;6.968;2022-08-25T00:27:40;101079.97;;;32.24;27.09
18784;BME280;9520;50.954;6.968;2022-08-25T00:28:06;101077.25;;;32.24;27.14
18784;BME280;9520;50.954;6.968;2022-08-25T00:28:29;101077.38;;;32.22;26.93
18784;BME280;9520;50.954;6.968;2022-08-25T00:28:51;101076.69;;;32.20;27.33
18784;BME280;9520;50.954;6.968;2022-08-25T00:29:23;101076.97;;;32.17;27.67
18784;BME280;9520;50.954;6.968;2022-08-25T00:29:47;101076.28;;;32.15;27.91
18784;BME280;9520;50.954;6.968;2022-08-25T00:30:10;101074.88;;;32.11;27.71
18784;BME280;9520;50.954;6.968;2022-08-25T00:30:37;101076.88;;;32.09;27.37
18784;BME280;9520;50.954;6.968;2022-08-25T00:30:59;101078.31;;;32.03;26.91
18784;BME280;9520;50.954;6.968;2022-08-25T00:31:22;101077.63;;;32.01;27.38
18784;BME280;9520;50.954;6.968;2022-08-25T00:31:58;101079.31;;;32.02;27.91
18784;BME280;9520;50.954;6.968;2022-08-25T00:32:20;101076.78;;;32.01;28.05
18784;BME280;9520;50.954;6.968;2022-08-25T00:32:45;101067.72;;;32.00;28.01
18784;BME280;9520;50.954;6.968;2022-08-25T00:33:16;101077.63;;;32.01;27.90
18784;BME280;9520;50.954;6.968;2022-08-25T00:33:38;101081.22;;;32.02;27.67
18784;BME280;9520;50.954;6.968;2022-08-25T00:33:59;101074.03;;;32.01;27.20
18784;BME280;9520;50.954;6.968;2022-08-25T00:34:24;101081.91;;;32.04;27.51
18784;BME280;9520;50.954;6.968;2022-08-25T00:34:46;101079.19;;;32.04;27.48
18784;BME280;9520;50.954;6.968;2022-08-25T00:35:08;101079.19;;;32.04;28.02
18784;BME280;9520;50.954;6.968;2022-08-25T00:35:30;101073.88;;;32.02;27.74
18784;BME280;9520;50.954;6.968;2022-08-25T00:35:52;101075.59;;;32.03;27.89
18784;BME280;9520;50.954;6.968;2022-08-25T00:36:17;101083.78;;;32.03;27.38
18784;BME280;9520;50.954;6.968;2022-08-25T00:36:40;101068.88;;;31.98;27.48
18784;BME280;9520;50.954;6.968;2022-08-25T00:37:04;101069.91;;;31.97;27.43
18784;BME280;9520;50.954;6.968;2022-08-25T00:37:27;101075.03;;;32.00;26.76
18784;BME280;9520;50.954;6.968;2022-08-25T00:37:50;101076.19;;;31.97;27.03
18784;BME280;9520;50.954;6.968;2022-08-25T00:38:11;101081.66;;;31.97;27.09
18784;BME280;9520;50.954;6.968;2022-08-25T00:38:33;101079.09;;;31.96;26.54
18784;BME280;9520;50.954;6.968;2022-08-25T00:38:57;101079.97;;;31.96;26.85
18784;BME280;9520;50.954;6.968;2022-08-25T00:39:21;101077.22;;;31.96;26.82
18784;BME280;9520;50.954;6.968;2022-08-25T00:39:44;101069.91;;;31.97;27.37
18784;BME280;9520;50.954;6.968;2022-08-25T00:40:08;101079.66;;;31.99;27.58
18784;BME280;9520;50.954;6.968;2022-08-25T00:40:30;101077.06;;;31.98;27.33
18784;BME280;9520;50.954;6.968;2022-08-25T00:40:53;101077.22;;;31.96;27.49
18784;BME280;9520;50.954;6.968;2022-08-25T00:41:27;101085.97;;;32.00;27.38
18784;BME280;9520;50.954;6.968;2022-08-25T00:41:50;101077.91;;;31.98;27.71
18784;BME280;9520;50.954;6.968;2022-08-25T00:42:14;101087.97;;;31.98;27.21
18784;BME280;9520;50.954;6.968;2022-08-25T00:42:36;101084.25;;;31.99;26.96
18784;BME280;9520;50.954;6.968;2022-08-25T00:42:59;101072.22;;;31.92;27.53
18784;BME280;9520;50.954;6.968;2022-08-25T00:43:21;101077.38;;;31.95;27.19
18784;BME280;9520;50.954;6.968;2022-08-25T00:43:47;101081.41;;;31.91;27.92
18784;BME280;9520;50.954;6.968;2022-08-25T00:44:11;101087.16;;;31.88;27.49
18784;BME280;9520;50.954;6.968;2022-08-25T00:44:33;101077.97;;;31.89;27.28
18784;BME280;9520;50.954;6.968;2022-08-25T00:44:55;101080.16;;;31.85;27.30
18784;BME280;9520;50.954;6.968;2022-08-25T00:45:19;101081.00;;;31.86;27.26
18784;BME280;9520;50.954;6.968;2022-08-25T00:46:06;101081.16;;;31.84;27.78
18784;BME280;9520;50.954;6.968;2022-08-25T00:46:32;101084.59;;;31.86;27.66
18784;BME280;9520;50.954;6.968;2022-08-25T00:46:58;101082.00;;;31.85;27.26
18784;BME280;9520;50.954;6.968;2022-08-25T00:47:21;101078.28;;;31.86;27.24
18784;BME280;9520;50.954;6.968;2022-08-25T00:47:42;101082.88;;;31.85;27.44
18784;BME280;9520;50.954;6.968;2022-08-25T00:48:05;101073.81;;;31.85;26.94
18784;BME280;9520;50.954;6.968;2022-08-25T00:48:28;101083.75;;;31.86;27.15
18784;BME280;9520;50.954;6.968;2022-08-25T00:48:54;101078.41;;;31.84;27.35
18784;BME280;9520;50.954;6.968;2022-08-25T00:49:19;101086.06;;;31.81;27.07
18784;BME280;9520;50.954;6.968;2022-08-25T00:49:48;101083.47;;;31.79;27.22
18784;BME280;9520;50.954;6.968;2022-08-25T00:50:12;101073.59;;;31.68;27.43
18784;BME280;9520;50.954;6.968;2022-08-25T00:50:34;101079.91;;;31.69;27.69
18784;BME280;9520;50.954;6.968;2022-08-25T00:50:56;101080.66;;;31.71;27.52
18784;BME280;9520;50.954;6.968;2022-08-25T00:51:24;101081.50;;;31.71;28.40
18784;BME280;9520;50.954;6.968;2022-08-25T00:51:53;101079.78;;;31.70;28.82
18784;BME280;9520;50.954;6.968;2022-08-25T00:52:18;101077.19;;;31.69;28.27
18784;BME280;9520;50.954;6.968;2022-08-25T00:52:42;101076.06;;;31.71;27.95
18784;BME280;9520;50.954;6.968;2022-08-25T00:53:07;101083.19;;;31.72;27.89
18784;BME280;9520;50.954;6.968;2022-08-25T00:53:29;101072.28;;;31.72;27.80
18784;BME280;9520;50.954;6.968;2022-08-25T00:53:51;101084.78;;;31.75;27.28
18784;BME280;9520;50.954;6.968;2022-08-25T00:54:16;101077.47;;;31.76;27.39
18784;BME280;9520;50.954;6.968;2022-08-25T00:54:42;101082.91;;;31.76;28.55
18784;BME280;9520;50.954;6.968;2022-08-25T00:55:10;101079.47;;;31.73;29.13
18784;BME280;9520;50.954;6.968;2022-08-25T00:55:36;101082.19;;;31.73;28.32
18784;BME280;9520;50.954;6.968;2022-08-25T00:56:00;101077.91;;;31.71;28.34
18784;BME280;9520;50.954;6.968;2022-08-25T00:56:23;101081.78;;;31.68;28.51
18784;BME280;9520;50.954;6.968;2022-08-25T00:56:45;101080.09;;;31.67;28.44
18784;BME280;9520;50.954;6.968;2022-08-25T00:57:10;101078.91;;;31.70;28.31
18784;BME280;9520;50.954;6.968;2022-08-25T00:57:37;101076.31;;;31.68;28.55
18784;BME280;9520;50.954;6.968;2022-08-25T00:58:04;101074.47;;;31.69;28.72
18784;BME280;9520;50.954;6.968;2022-08-25T00:58:28;101080.47;;;31.72;28.51
18784;BME280;9520;50.954;6.968;2022-08-25T00:58:53;101079.78;;;31.70;29.67
18784;BME280;9520;50.954;6.968;2022-08-25T00:59:15;101084.22;;;31.71;29.10
18784;BME280;9520;50.954;6.968;2022-08-25T00:59:37;101076.91;;;31.72;28.90
18784;BME280;9520;50.954;6.968;2022-08-25T01:00:00;101081.19;;;31.75;29.16
18784;BME280;9520;50.954;6.968;2022-08-25T01:00:30;101082.91;;;31.76;29.18
18784;BME280;9520;50.954;6.968;2022-08-25T01:00:54;101085.66;;;31.76;28.89
18784;BME280;9520;50.954;6.968;2022-08-25T01:01:17;101077.59;;;31.74;29.35
18784;BME280;9520;50.954;6.968;2022-08-25T01:01:39;101078.78;;;31.71;28.73
18784;BME280;9520;50.954;6.968;2022-08-25T01:02:04;101081.19;;;31.75;29.05
18784;BME280;9520;50.954;6.968;2022-08-25T01:02:33;101086.66;;;31.75;28.87
18784;BME280;9520;50.954;6.968;2022-08-25T01:02:56;101080.47;;;31.72;29.15
18784;BME280;9520;50.954;6.968;2022-08-25T01:03:19;101079.47;;;31.73;28.68
18784;BME280;9520;50.954;6.968;2022-08-25T01:03:46;101083.94;;;31.75;27.98
18784;BME280;9520;50.954;6.968;2022-08-25T01:04:08;101082.06;;;31.75;28.02
18784;BME280;9520;50.954;6.968;2022-08-25T01:04:30;101077.47;;;31.76;28.14
18784;BME280;9520;50.954;6.968;2022-08-25T01:04:52;101082.91;;;31.76;28.39
18784;BME280;9520;50.954;6.968;2022-08-25T01:05:14;101087.38;;;31.77;28.27
18784;BME280;9520;50.954;6.968;2022-08-25T01:05:37;101087.38;;;31.77;28.80
18784;BME280;9520;50.954;6.968;2022-08-25T01:06:00;101080.06;;;31.77;28.78
18784;BME280;9520;50.954;6.968;2022-08-25T01:06:23;101079.88;;;31.79;28.82
18784;BME280;9520;50.954;6.968;2022-08-25T01:06:47;101071.16;;;31.75;29.31
18784;BME280;9520;50.954;6.968;2022-08-25T01:07:10;101085.50;;;31.77;29.45
18784;BME280;9520;50.954;6.968;2022-08-25T01:07:39;101085.78;;;31.74;29.19
18784;BME280;9520;50.954;6.968;2022-08-25T01:08:06;101078.47;;;31.75;28.01
18784;BME280;9520;50.954;6.968;2022-08-25T01:08:31;101082.06;;;31.75;29.13
18784;BME280;9520;50.954;6.968;2022-08-25T01:08:53;101079.31;;;31.75;28.51
18784;BME280;9520;50.954;6.968;2022-08-25T01:09:16;101079.19;;;31.77;28.77
18784;BME280;9520;50.954;6.968;2022-08-25T01:09:41;101081.91;;;31.77;28.46
18784;BME280;9520;50.954;6.968;2022-08-25T01:10:05;101079.19;;;31.77;28.37
18784;BME280;9520;50.954;6.968;2022-08-25T01:10:28;101079.31;;;31.75;28.63
18784;BME280;9520;50.954;6.968;2022-08-25T01:10:51;101075.59;;;31.76;28.63
18784;BME280;9520;50.954;6.968;2022-08-25T01:11:14;101082.06;;;31.75;28.61
18784;BME280;9520;50.954;6.968;2022-08-25T01:11:37;101075.00;;;31.72;28.74
18784;BME280;9520;50.954;6.968;2022-08-25T01:11:59;101076.75;;;31.73;29.09
18784;BME280;9520;50.954;6.968;2022-08-25T01:12:21;101078.59;;;31.73;29.03
18784;BME280;9520;50.954;6.968;2022-08-25T01:12:44;101077.91;;;31.71;28.85
18784;BME280;9520;50.954;6.968;2022-08-25T01:13:08;101074.31;;;31.70;28.37
18784;BME280;9520;50.954;6.968;2022-08-25T01:13:40;101078.38;;;31.66;28.49
18784;BME280;9520;50.954;6.968;2022-08-25T01:14:03;101071.50;;;31.62;29.02
18784;BME280;9520;50.954;6.968;2022-08-25T01:14:28;101076.50;;;31.67;28.53
18784;BME280;9520;50.954;6.968;2022-08-25T01:14:52;101076.31;;;31.68;28.95
18784;BME280;9520;50.954;6.968;2022-08-25T01:15:16;101079.91;;;31.69;29.12
18784;BME280;9520;50.954;6.968;2022-08-25T01:15:39;101073.78;;;31.67;28.33
18784;BME280;9520;50.954;6.968;2022-08-25T01:16:02;101073.03;;;31.65;29.08
18784;BME280;9520;50.954;6.968;2022-08-25T01:16:24;101071.19;;;31.65;28.23
18784;BME280;9520;50.954;6.968;2022-08-25T01:16:47;101068.59;;;31.64;28.58
18784;BME280;9520;50.954;6.968;2022-08-25T01:17:14;101075.91;;;31.63;28.61
18784;BME280;9520;50.954;6.968;2022-08-25T01:17:44;101074.91;;;31.64;29.29
18784;BME280;9520;50.954;6.968;2022-08-25T01:18:07;101075.63;;;31.66;29.65
18784;BME280;9520;50.954;6.968;2022-08-25T01:18:41;101072.91;;;31.66;29.24
18784;BME280;9520;50.954;6.968;2022-08-25T01:19:05;101078.50;;;31.65;29.58
18784;BME280;9520;50.954;6.968;2022-08-25T01:19:29;101083.97;;;31.65;29.09
18784;BME280;9520;50.954;6.968;2022-08-25T01:19:50;101080.38;;;31.64;28.23
18784;BME280;9520;50.954;6.968;2022-08-25T01:20:13;101077.78;;;31.63;28.00
18784;BME280;9520;50.954;6.968;2022-08-25T01:20:35;101077.78;;;31.63;28.27
18784;BME280;9520;50.954;6.968;2022-08-25T01:21:00;101079.69;;;31.62;28.47
18784;BME280;9520;50.954;6.968;2022-08-25T01:21:24;101079.97;;;31.59;28.55
18784;BME280;9520;50.954;6.968;2022-08-25T01:21:49;101073.50;;;31.60;28.70
18784;BME280;9520;50.954;6.968;2022-08-25T01:22:11;101086.13;;;31.61;28.97
18784;BME280;9520;50.954;6.968;2022-08-25T01:22:33;101073.50;;;31.60;28.69
18784;BME280;9520;50.954;6.968;2022-08-25T01:22:56;101076.38;;;31.59;28.42
18784;BME280;9520;50.954;6.968;2022-08-25T01:23:18;101079.25;;;31.57;28.34
18784;BME280;9520;50.954;6.968;2022-08-25T01:23:40;101078.22;;;31.58;28.17
18784;BME280;9520;50.954;6.968;2022-08-25T01:24:03;101074.06;;;31.54;28.60
18784;BME280;9520;50.954;6.968;2022-08-25T01:24:30;101079.81;;;31.51;28.11
18784;BME280;9520;50.954;6.968;2022-08-25T01:24:58;101076.69;;;31.46;28.46
18784;BME280;9520;50.954;6.968;2022-08-25T01:25:32;101075.25;;;31.42;27.77
18784;BME280;9520;50.954;6.968;2022-08-25T01:26:01;101079.00;;;31.41;28.08
18784;BME280;9520;50.954;6.968;2022-08-25T01:26:27;101080.97;;;31.39;28.47
18784;BME280;9520;50.954;6.968;2022-08-25T01:26:51;101077.25;;;31.40;28.24
18784;BME280;9520;50.954;6.968;2022-08-25T01:27:13;101076.25;;;31.41;28.97
18784;BME280;9520;50.954;6.968;2022-08-25T01:27:35;101086.16;;;31.42;28.89
18784;BME280;9520;50.954;6.968;2022-08-25T01:27:59;101079.84;;;31.42;29.01
18784;BME280;9520;50.954;6.968;2022-08-25T01:28:22;101074.53;;;31.40;28.97
18784;BME280;9520;50.954;6.968;2022-08-25T01:28:46;101083.56;;;31.41;28.90
18784;BME280;9520;50.954;6.968;2022-08-25T01:29:28;101075.69;;;31.38;28.65
18784;BME280;9520;50.954;6.968;2022-08-25T01:29:51;101077.56;;;31.37;28.98
18784;BME280;9520;50.954;6.968;2022-08-25T01:30:13;101073.13;;;31.36;28.50
18784;BME280;9520;50.954;6.968;2022-08-25T01:30:35;101075.69;;;31.38;27.90
18784;BME280;9520;50.954;6.968;2022-08-25T01:30:57;101075.84;;;31.36;28.91
18784;BME280;9520;50.954;6.968;2022-08-25T01:31:19;101081.28;;;31.36;28.82
18784;BME280;9520;50.954;6.968;2022-08-25T01:31:45;101073.38;;;31.33;28.65
18784;BME280;9520;50.954;6.968;2022-08-25T01:32:10;101083.88;;;31.38;28.82
18784;BME280;9520;50.954;6.968;2022-08-25T01:32:32;101074.84;;;31.37;29.60
18784;BME280;9520;50.954;6.968;2022-08-25T01:32:54;101083.56;;;31.41;30.19
18784;BME280;9520;50.954;6.968;2022-08-25T01:33:17;101081.72;;;31.41;30.21
18784;BME280;9520;50.954;6.968;2022-08-25T01:33:39;101078.13;;;31.41;29.98
18784;BME280;9520;50.954;6.968;2022-08-25T01:34:05;101080.84;;;31.41;29.47
18784;BME280;9520;50.954;6.968;2022-08-25T01:34:28;101080.84;;;31.41;29.53
18784;BME280;9520;50.954;6.968;2022-08-25T01:34:52;101086.16;;;31.42;29.59
18784;BME280;9520;50.954;6.968;2022-08-25T01:35:14;101078.00;;;31.42;29.44
18784;BME280;9520;50.954;6.968;2022-08-25T01:35:36;101082.56;;;31.42;29.56
18784;BME280;9520;50.954;6.968;2022-08-25T01:36:00;101077.13;;;31.42;29.31
18784;BME280;9520;50.954;6.968;2022-08-25T01:36:22;101081.56;;;31.43;28.30
18784;BME280;9520;50.954;6.968;2022-08-25T01:36:45;101087.16;;;31.41;28.54
18784;BME280;9520;50.954;6.968;2022-08-25T01:37:07;101074.84;;;31.37;28.51
18784;BME280;9520;50.954;6.968;2022-08-25T01:37:34;101081.72;;;31.41;28.91
18784;BME280;9520;50.954;6.968;2022-08-25T01:37:58;101075.53;;;31.39;29.69
18784;BME280;9520;50.954;6.968;2022-08-25T01:38:20;101082.72;;;31.40;29.15
18784;BME280;9520;50.954;6.968;2022-08-25T01:38:43;101084.44;;;31.41;29.17
18784;BME280;9520;50.954;6.968;2022-08-25T01:39:05;101085.44;;;31.40;29.21
18784;BME280;9520;50.954;6.968;2022-08-25T01:39:28;101084.72;;;31.38;29.04
18784;BME280;9520;50.954;6.968;2022-08-25T01:39:51;101083.03;;;31.37;29.32
18784;BME280;9520;50.954;6.968;2022-08-25T01:40:14;101078.56;;;31.36;29.41
18784;BME280;9520;50.954;6.968;2022-08-25T01:40:37;101075.84;;;31.36;29.66
18784;BME280;9520;50.954;6.968;2022-08-25T01:41:00;101076.53;;;31.38;29.47
18784;BME280;9520;50.954;6.968;2022-08-25T01:41:30;101078.44;;;31.38;29.72
18784;BME280;9520;50.954;6.968;2022-08-25T01:42:12;101076.53;;;31.38;29.21
18784;BME280;9520;50.954;6.968;2022-08-25T01:42:46;101073.81;;;31.38;29.58
18784;BME280;9520;50.954;6.968;2022-08-25T01:43:21;101082.16;;;31.37;29.48
18784;BME280;9520;50.954;6.968;2022-08-25T01:43:47;101072.97;;;31.38;29.59
18784;BME280;9520;50.954;6.968;2022-08-25T01:44:09;101078.25;;;31.39;29.35
18784;BME280;9520;50.954;6.968;2022-08-25T01:44:39;101078.44;;;31.38;29.13
18784;BME280;9520;50.954;6.968;2022-08-25T01:45:02;101079.25;;;31.38;29.42
18784;BME280;9520;50.954;6.968;2022-08-25T01:45:24;101082.00;;;31.38;29.40
18784;BME280;9520;50.954;6.968;2022-08-25T01:45:49;101085.56;;;31.39;29.89
18784;BME280;9520;50.954;6.968;2022-08-25T01:46:11;101078.44;;;31.38;29.46
18784;BME280;9520;50.954;6.968;2022-08-25T01:46:34;101085.56;;;31.39;29.45
18784;BME280;9520;50.954;6.968;2022-08-25T01:46:59;101080.13;;;31.39;29.52
18784;BME280;9520;50.954;6.968;2022-08-25T01:47:21;101082.72;;;31.40;29.92
18784;BME280;9520;50.954;6.968;2022-08-25T01:47:44;101080.97;;;31.39;29.67
18784;BME280;9520;50.954;6.968;2022-08-25T01:48:09;101075.53;;;31.39;29.41
18784;BME280;9520;50.954;6.968;2022-08-25T01:48:31;101080.28;;;31.37;29.53
18784;BME280;9520;50.954;6.968;2022-08-25T01:48:53;101080.84;;;31.41;29.96
18784;BME280;9520;50.954;6.968;2022-08-25T01:49:15;101082.72;;;31.40;29.98
18784;BME280;9520;50.954;6.968;2022-08-25T01:49:37;101082.56;;;31.42;29.88
18784;BME280;9520;50.954;6.968;2022-08-25T01:50:00;101084.44;;;31.41;29.82
18784;BME280;9520;50.954;6.968;2022-08-25T01:50:21;101076.25;;;31.41;29.86
18784;BME280;9520;50.954;6.968;2022-08-25T01:50:43;101082.72;;;31.40;29.92
18784;BME280;9520;50.954;6.968;2022-08-25T01:51:06;101079.84;;;31.42;29.81
18784;BME280;9520;50.954;6.968;2022-08-25T01:51:34;101074.66;;;31.39;29.22
18784;BME280;9520;50.954;6.968;2022-08-25T01:52:01;101082.72;;;31.40;29.65
18784;BME280;9520;50.954;6.968;2022-08-25T01:52:28;101071.81;;;31.40;29.41
18784;BME280;9520;50.954;6.968;2022-08-25T01:52:55;101073.66;;;31.40;29.53
18784;BME280;9520;50.954;6.968;2022-08-25T01:53:23;101079.44;;;31.37;29.38
18784;BME280;9520;50.954;6.968;2022-08-25T01:53:46;101077.56;;;31.37;29.05
18784;BME280;9520;50.954;6.968;2022-08-25T01:54:08;101072.97;;;31.38;29.19
18784;BME280;9520;50.954;6.968;2022-08-25T01:54:30;101077.84;;;31.34;30.07
18784;BME280;9520;50.954;6.968;2022-08-25T01:54:52;101079.88;;;31.32;30.07
18784;BME280;9520;50.954;6.968;2022-08-25T01:55:15;101073.56;;;31.32;29.87
18784;BME280;9520;50.954;6.968;2022-08-25T01:55:37;101073.69;;;31.30;29.61
18784;BME280;9520;50.954;6.968;2022-08-25T01:56:14;101075.72;;;31.28;29.04
18784;BME280;9520;50.954;6.968;2022-08-25T01:56:36;101079.28;;;31.28;29.36
18784;BME280;9520;50.954;6.968;2022-08-25T01:56:59;101079.44;;;31.27;29.72
18784;BME280;9520;50.954;6.968;2022-08-25T01:57:22;101074.13;;;31.25;29.50
18784;BME280;9520;50.954;6.968;2022-08-25T01:57:43;101065.09;;;31.25;29.56
18784;BME280;9520;50.954;6.968;2022-08-25T01:58:05;101080.44;;;31.26;28.98
18784;BME280;9520;50.954;6.968;2022-08-25T01:58:29;101070.41;;;31.26;28.92
18784;BME280;9520;50.954;6.968;2022-08-25T01:58:52;101068.56;;;31.27;29.78
18784;BME280;9520;50.954;6.968;2022-08-25T01:59:14;101075.88;;;31.26;29.71
18784;BME280;9520;50.954;6.968;2022-08-25T01:59:44;101069.53;;;31.26;29.85
18784;BME280;9520;50.954;6.968;2022-08-25T02:00:09;101069.84;;;31.23;29.74
18784;BME280;9520;50.954;6.968;2022-08-25T02:00:32;101075.88;;;31.26;30.11
18784;BME280;9520;50.954;6.968;2022-08-25T02:00:56;101079.28;;;31.28;29.81
18784;BME280;9520;50.954;6.968;2022-08-25T02:01:23;101077.72;;;31.26;29.69
18784;BME280;9520;50.954;6.968;2022-08-25T02:01:46;101074.00;;;31.27;29.45
18784;BME280;9520;50.954;6.968;2022-08-25T02:02:08;101074.28;;;31.24;29.96
18784;BME280;9520;50.954;6.968;2022-08-25T02:02:31;101076.88;;;31.25;29.89
18784;BME280;9520;50.954;6.968;2022-08-25T02:02:53;101078.59;;;31.26;30.09
18784;BME280;9520;50.954;6.968;2022-08-25T02:03:16;101079.59;;;31.25;29.73
18784;BME280;9520;50.954;6.968;2022-08-25T02:03:42;101081.31;;;31.26;29.94
18784;BME280;9520;50.954;6.968;2022-08-25T02:04:06;101072.59;;;31.23;29.82
18784;BME280;9520;50.954;6.968;2022-08-25T02:04:29;101077.00;;;31.24;29.52
18784;BME280;9520;50.954;6.968;2022-08-25T02:04:53;101077.00;;;31.24;29.11
18784;BME280;9520;50.954;6.968;2022-08-25T02:05:17;101076.13;;;31.23;29.72
18784;BME280;9520;50.954;6.968;2022-08-25T02:05:43;101075.44;;;31.21;30.26
18784;BME280;9520;50.954;6.968;2022-08-25T02:06:11;101083.47;;;31.23;29.54
18784;BME280;9520;50.954;6.968;2022-08-25T02:06:33;101080.75;;;31.23;29.59
18784;BME280;9520;50.954;6.968;2022-08-25T02:06:57;101077.16;;;31.22;29.75
18784;BME280;9520;50.954;6.968;2022-08-25T02:07:19;101077.16;;;31.22;29.73
18784;BME280;9520;50.954;6.968;2022-08-25T02:07:41;101079.91;;;31.22;29.95